Aviation Digital Data Service (ADDS)

Output produced by METARs form (0237 UTC 25 January 2020)
found at http://www.aviationweather.gov/metar/data/
 
METAR text: MNMG 250200Z 14006KT CAVOK 26/20 Q1012 A2991 NOSIG
Conditions at: MNMG (MANAGUA/AUGUSTO , NI) observed 0200 UTC 25 January 2020
Temperature: 26.0°C (79°F)
Dewpoint: 20.0°C (68°F) [RH = 70%]
Pressure (altimeter): 29.88 inches Hg (1012.0 mb)
Winds: from the SE (140 degrees) at 7 MPH (6 knots; 3.1 m/s)
Visibility: 6 or more miles (10+ km)
Ceiling: ceiling and visibility are OK
Clouds: unknown
Weather: no significant weather observed at this time

METAR text: MNMG 250100Z 14004KT CAVOK 27/19 Q1012 A2989 NOSIG
Conditions at: MNMG (MANAGUA/AUGUSTO , NI) observed 0100 UTC 25 January 2020
Temperature: 27.0°C (81°F)
Dewpoint: 19.0°C (66°F) [RH = 62%]
Pressure (altimeter): 29.88 inches Hg (1012.0 mb)
Winds: from the SE (140 degrees) at 5 MPH (4 knots; 2.1 m/s)
Visibility: 6 or more miles (10+ km)
Ceiling: ceiling and visibility are OK
Clouds: unknown
Weather: no significant weather observed at this time

METAR text: MNMG 250000Z 12006KT CAVOK 29/19 Q1011 A2986 NOSIG
Conditions at: MNMG (MANAGUA/AUGUSTO , NI) observed 0000 UTC 25 January 2020
Temperature: 29.0°C (84°F)
Dewpoint: 19.0°C (66°F) [RH = 55%]
Pressure (altimeter): 29.85 inches Hg (1011.0 mb)
Winds: from the ESE (120 degrees) at 7 MPH (6 knots; 3.1 m/s)
Visibility: 6 or more miles (10+ km)
Ceiling: ceiling and visibility are OK
Clouds: unknown
Weather: no significant weather observed at this time

METAR text: MNMG 242300Z 12008KT 9999 FEW028 30/19 Q1010 A2983 NOSIG
Conditions at: MNMG (MANAGUA/AUGUSTO , NI) observed 2300 UTC 24 January 2020
Temperature: 30.0°C (86°F)
Dewpoint: 19.0°C (66°F) [RH = 52%]
Pressure (altimeter): 29.82 inches Hg (1010.0 mb)
Winds: from the ESE (120 degrees) at 9 MPH (8 knots; 4.1 m/s)
Visibility: 6 or more miles (10+ km)
Ceiling: at least 12,000 feet AGL
Clouds: few clouds at 2800 feet AGL
Weather: no significant weather observed at this time

METAR text: MNMG 242200Z 11008KT 9999 FEW028 32/19 Q1010 A2983 NOSIG
Conditions at: MNMG (MANAGUA/AUGUSTO , NI) observed 2200 UTC 24 January 2020
Temperature: 32.0°C (90°F)
Dewpoint: 19.0°C (66°F) [RH = 46%]
Pressure (altimeter): 29.82 inches Hg (1010.0 mb)
Winds: from the ESE (110 degrees) at 9 MPH (8 knots; 4.1 m/s)
Visibility: 6 or more miles (10+ km)
Ceiling: at least 12,000 feet AGL
Clouds: few clouds at 2800 feet AGL
Weather: no significant weather observed at this time

METAR text: MNMG 242100Z 08008KT 9999 FEW028 32/18 Q1010 A2983 NOSIG
Conditions at: MNMG (MANAGUA/AUGUSTO , NI) observed 2100 UTC 24 January 2020
Temperature: 32.0°C (90°F)
Dewpoint: 18.0°C (64°F) [RH = 43%]
Pressure (altimeter): 29.82 inches Hg (1010.0 mb)
Winds: from the E (80 degrees) at 9 MPH (8 knots; 4.1 m/s)
Visibility: 6 or more miles (10+ km)
Ceiling: at least 12,000 feet AGL
Clouds: few clouds at 2800 feet AGL
Weather: no significant weather observed at this time

METAR text: MNMG 242000Z 09010KT 9999 FEW028 SCT060 32/19 Q1010 A2984 NOSIG
Conditions at: MNMG (MANAGUA/AUGUSTO , NI) observed 2000 UTC 24 January 2020
Temperature: 32.0°C (90°F)
Dewpoint: 19.0°C (66°F) [RH = 46%]
Pressure (altimeter): 29.82 inches Hg (1010.0 mb)
Winds: from the E (90 degrees) at 12 MPH (10 knots; 5.1 m/s)
Visibility: 6 or more miles (10+ km)
Ceiling: at least 12,000 feet AGL
Clouds: few clouds at 2800 feet AGL
scattered clouds at 6000 feet AGL
Weather: no significant weather observed at this time

METAR text: MNMG 241900Z 07008KT 9999 FEW028 BKN060 31/19 Q1011 A2988 NOSIG
Conditions at: MNMG (MANAGUA/AUGUSTO , NI) observed 1900 UTC 24 January 2020
Temperature: 31.0°C (88°F)
Dewpoint: 19.0°C (66°F) [RH = 49%]
Pressure (altimeter): 29.85 inches Hg (1011.0 mb)
Winds: from the ENE (70 degrees) at 9 MPH (8 knots; 4.1 m/s)
Visibility: 6 or more miles (10+ km)
Ceiling: 6000 feet AGL
Clouds: few clouds at 2800 feet AGL
broken clouds at 6000 feet AGL
Weather: no significant weather observed at this time

METAR text: MNMG 241800Z 10010KT 9999 FEW030 SCT060 32/18 Q1012 A2990 NOSIG
Conditions at: MNMG (MANAGUA/AUGUSTO , NI) observed 1800 UTC 24 January 2020
Temperature: 32.0°C (90°F)
Dewpoint: 18.0°C (64°F) [RH = 43%]
Pressure (altimeter): 29.88 inches Hg (1012.0 mb)
Winds: from the E (100 degrees) at 12 MPH (10 knots; 5.1 m/s)
Visibility: 6 or more miles (10+ km)
Ceiling: at least 12,000 feet AGL
Clouds: few clouds at 3000 feet AGL
scattered clouds at 6000 feet AGL
Weather: no significant weather observed at this time

METAR text: MNMG 241700Z 08010KT 9999 BKN030 30/20 Q1013 A2993 NOSIG
Conditions at: MNMG (MANAGUA/AUGUSTO , NI) observed 1700 UTC 24 January 2020
Temperature: 30.0°C (86°F)
Dewpoint: 20.0°C (68°F) [RH = 55%]
Pressure (altimeter): 29.91 inches Hg (1013.0 mb)
Winds: from the E (80 degrees) at 12 MPH (10 knots; 5.1 m/s)
Visibility: 6 or more miles (10+ km)
Ceiling: 3000 feet AGL
Clouds: broken clouds at 3000 feet AGL
Weather: no significant weather observed at this time

METAR text: MNMG 241600Z 09010KT 9999 FEW025 29/20 Q1014 A2996 NOSIG
Conditions at: MNMG (MANAGUA/AUGUSTO , NI) observed 1600 UTC 24 January 2020
Temperature: 29.0°C (84°F)
Dewpoint: 20.0°C (68°F) [RH = 58%]
Pressure (altimeter): 29.94 inches Hg (1014.0 mb)
Winds: from the E (90 degrees) at 12 MPH (10 knots; 5.1 m/s)
Visibility: 6 or more miles (10+ km)
Ceiling: at least 12,000 feet AGL
Clouds: few clouds at 2500 feet AGL
Weather: no significant weather observed at this time

METAR text: MNMG 241500Z 09012KT 9999 FEW025 28/20 Q1011 A2987 NOSIG
Conditions at: MNMG (MANAGUA/AUGUSTO , NI) observed 1500 UTC 24 January 2020
Temperature: 28.0°C (82°F)
Dewpoint: 20.0°C (68°F) [RH = 62%]
Pressure (altimeter): 29.85 inches Hg (1011.0 mb)
Winds: from the E (90 degrees) at 14 MPH (12 knots; 6.2 m/s)
Visibility: 6 or more miles (10+ km)
Ceiling: at least 12,000 feet AGL
Clouds: few clouds at 2500 feet AGL
Weather: no significant weather observed at this time

METAR text: MNMG 241400Z 11008KT 9999 FEW024 26/21 Q1013 A2994 NOSIG
Conditions at: MNMG (MANAGUA/AUGUSTO , NI) observed 1400 UTC 24 January 2020
Temperature: 26.0°C (79°F)
Dewpoint: 21.0°C (70°F) [RH = 74%]
Pressure (altimeter): 29.91 inches Hg (1013.0 mb)
Winds: from the ESE (110 degrees) at 9 MPH (8 knots; 4.1 m/s)
Visibility: 6 or more miles (10+ km)
Ceiling: at least 12,000 feet AGL
Clouds: few clouds at 2400 feet AGL
Weather: no significant weather observed at this time

METAR text: MNMG 241300Z 14004KT 9999 FEW023 22/21 Q1013 A2993 NOSIG
Conditions at: MNMG (MANAGUA/AUGUSTO , NI) observed 1300 UTC 24 January 2020
Temperature: 22.0°C (72°F)
Dewpoint: 21.0°C (70°F) [RH = 94%]
Pressure (altimeter): 29.91 inches Hg (1013.0 mb)
Winds: from the SE (140 degrees) at 5 MPH (4 knots; 2.1 m/s)
Visibility: 6 or more miles (10+ km)
Ceiling: at least 12,000 feet AGL
Clouds: few clouds at 2300 feet AGL
Weather: no significant weather observed at this time

METAR text: MNMG 241200Z 17006KT 9999 FEW023 21/19 Q1012 A2991 NOSIG
Conditions at: MNMG (MANAGUA/AUGUSTO , NI) observed 1200 UTC 24 January 2020
Temperature: 21.0°C (70°F)
Dewpoint: 19.0°C (66°F) [RH = 88%]
Pressure (altimeter): 29.88 inches Hg (1012.0 mb)
Winds: from the S (170 degrees) at 7 MPH (6 knots; 3.1 m/s)
Visibility: 6 or more miles (10+ km)
Ceiling: at least 12,000 feet AGL
Clouds: few clouds at 2300 feet AGL
Weather: no significant weather observed at this time

METAR text: MNMG 241100Z 15006KT 9999 FEW022 22/20 Q1012 A2989 NOSIG
Conditions at: MNMG (MANAGUA/AUGUSTO , NI) observed 1100 UTC 24 January 2020
Temperature: 22.0°C (72°F)
Dewpoint: 20.0°C (68°F) [RH = 88%]
Pressure (altimeter): 29.88 inches Hg (1012.0 mb)
Winds: from the SSE (150 degrees) at 7 MPH (6 knots; 3.1 m/s)
Visibility: 6 or more miles (10+ km)
Ceiling: at least 12,000 feet AGL
Clouds: few clouds at 2200 feet AGL
Weather: no significant weather observed at this time

METAR text: MNMG 241000Z 00000KT 9999 FEW022 21/20 Q1011 A2988 NOSIG
Conditions at: MNMG (MANAGUA/AUGUSTO , NI) observed 1000 UTC 24 January 2020
Temperature: 21.0°C (70°F)
Dewpoint: 20.0°C (68°F) [RH = 94%]
Pressure (altimeter): 29.85 inches Hg (1011.0 mb)
Winds: calm
Visibility: 6 or more miles (10+ km)
Ceiling: at least 12,000 feet AGL
Clouds: few clouds at 2200 feet AGL
Weather: no significant weather observed at this time

METAR text: MNMG 240900Z 00000KT 9999 FEW022 22/20 Q1011 A2988 NOSIG
Conditions at: MNMG (MANAGUA/AUGUSTO , NI) observed 0900 UTC 24 January 2020
Temperature: 22.0°C (72°F)
Dewpoint: 20.0°C (68°F) [RH = 88%]
Pressure (altimeter): 29.85 inches Hg (1011.0 mb)
Winds: calm
Visibility: 6 or more miles (10+ km)
Ceiling: at least 12,000 feet AGL
Clouds: few clouds at 2200 feet AGL
Weather: no significant weather observed at this time

METAR text: MNMG 240800Z 15004KT 9999 FEW022 22/21 Q1011 A2988 NOSIG
Conditions at: MNMG (MANAGUA/AUGUSTO , NI) observed 0800 UTC 24 January 2020
Temperature: 22.0°C (72°F)
Dewpoint: 21.0°C (70°F) [RH = 94%]
Pressure (altimeter): 29.85 inches Hg (1011.0 mb)
Winds: from the SSE (150 degrees) at 5 MPH (4 knots; 2.1 m/s)
Visibility: 6 or more miles (10+ km)
Ceiling: at least 12,000 feet AGL
Clouds: few clouds at 2200 feet AGL
Weather: no significant weather observed at this time

METAR text: MNMG 240700Z 17006KT 9999 FEW022 23/21 Q1012 A2989 NOSIG
Conditions at: MNMG (MANAGUA/AUGUSTO , NI) observed 0700 UTC 24 January 2020
Temperature: 23.0°C (73°F)
Dewpoint: 21.0°C (70°F) [RH = 89%]
Pressure (altimeter): 29.88 inches Hg (1012.0 mb)
Winds: from the S (170 degrees) at 7 MPH (6 knots; 3.1 m/s)
Visibility: 6 or more miles (10+ km)
Ceiling: at least 12,000 feet AGL
Clouds: few clouds at 2200 feet AGL
Weather: no significant weather observed at this time

METAR text: MNMG 240600Z 17006KT 9999 FEW022 23/21 Q1012 A2989 NOSIG
Conditions at: MNMG (MANAGUA/AUGUSTO , NI) observed 0600 UTC 24 January 2020
Temperature: 23.0°C (73°F)
Dewpoint: 21.0°C (70°F) [RH = 89%]
Pressure (altimeter): 29.88 inches Hg (1012.0 mb)
Winds: from the S (170 degrees) at 7 MPH (6 knots; 3.1 m/s)
Visibility: 6 or more miles (10+ km)
Ceiling: at least 12,000 feet AGL
Clouds: few clouds at 2200 feet AGL
Weather: no significant weather observed at this time

METAR text: MNMG 240500Z 00000KT 9999 FEW022 24/21 Q1012 A2991 NOSIG
Conditions at: MNMG (MANAGUA/AUGUSTO , NI) observed 0500 UTC 24 January 2020
Temperature: 24.0°C (75°F)
Dewpoint: 21.0°C (70°F) [RH = 83%]
Pressure (altimeter): 29.88 inches Hg (1012.0 mb)
Winds: calm
Visibility: 6 or more miles (10+ km)
Ceiling: at least 12,000 feet AGL
Clouds: few clouds at 2200 feet AGL
Weather: no significant weather observed at this time

METAR text: MNMG 240400Z 00000KT 9999 FEW023 25/21 Q1013 A2992 NOSIG
Conditions at: MNMG (MANAGUA/AUGUSTO , NI) observed 0400 UTC 24 January 2020
Temperature: 25.0°C (77°F)
Dewpoint: 21.0°C (70°F) [RH = 79%]
Pressure (altimeter): 29.91 inches Hg (1013.0 mb)
Winds: calm
Visibility: 6 or more miles (10+ km)
Ceiling: at least 12,000 feet AGL
Clouds: few clouds at 2300 feet AGL
Weather: no significant weather observed at this time

METAR text: MNMG 240300Z 00000KT CAVOK 25/21 Q1012 A2991 NOSIG
Conditions at: MNMG (MANAGUA/AUGUSTO , NI) observed 0300 UTC 24 January 2020
Temperature: 25.0°C (77°F)
Dewpoint: 21.0°C (70°F) [RH = 79%]
Pressure (altimeter): 29.88 inches Hg (1012.0 mb)
Winds: calm
Visibility: 6 or more miles (10+ km)
Ceiling: ceiling and visibility are OK
Clouds: unknown
Weather: no significant weather observed at this time

METAR text: MNMG 240200Z 14006KT 9999 FEW023 26/20 Q1011 A2988 NOSIG
Conditions at: MNMG (MANAGUA/AUGUSTO , NI) observed 0200 UTC 24 January 2020
Temperature: 26.0°C (79°F)
Dewpoint: 20.0°C (68°F) [RH = 70%]
Pressure (altimeter): 29.85 inches Hg (1011.0 mb)
Winds: from the SE (140 degrees) at 7 MPH (6 knots; 3.1 m/s)
Visibility: 6 or more miles (10+ km)
Ceiling: at least 12,000 feet AGL
Clouds: few clouds at 2300 feet AGL
Weather: no significant weather observed at this time

METAR text: MNMG 240100Z 15004KT 9999 FEW020 27/19 Q1010 A2985 NOSIG
Conditions at: MNMG (MANAGUA/AUGUSTO , NI) observed 0100 UTC 24 January 2020
Temperature: 27.0°C (81°F)
Dewpoint: 19.0°C (66°F) [RH = 62%]
Pressure (altimeter): 29.82 inches Hg (1010.0 mb)
Winds: from the SSE (150 degrees) at 5 MPH (4 knots; 2.1 m/s)
Visibility: 6 or more miles (10+ km)
Ceiling: at least 12,000 feet AGL
Clouds: few clouds at 2000 feet AGL
Weather: no significant weather observed at this time

METAR text: MNMG 240000Z 13008KT 9999 FEW025 28/20 Q1009 A2982 NOSIG
Conditions at: MNMG (MANAGUA/AUGUSTO , NI) observed 0000 UTC 24 January 2020
Temperature: 28.0°C (82°F)
Dewpoint: 20.0°C (68°F) [RH = 62%]
Pressure (altimeter): 29.79 inches Hg (1009.0 mb)
Winds: from the SE (130 degrees) at 9 MPH (8 knots; 4.1 m/s)
Visibility: 6 or more miles (10+ km)
Ceiling: at least 12,000 feet AGL
Clouds: few clouds at 2500 feet AGL
Weather: no significant weather observed at this time

METAR text: MNMG 232300Z 13010KT 9999 FEW025 30/19 Q1009 A2980 NOSIG
Conditions at: MNMG (MANAGUA/AUGUSTO , NI) observed 2300 UTC 23 January 2020
Temperature: 30.0°C (86°F)
Dewpoint: 19.0°C (66°F) [RH = 52%]
Pressure (altimeter): 29.79 inches Hg (1009.0 mb)
Winds: from the SE (130 degrees) at 12 MPH (10 knots; 5.1 m/s)
Visibility: 6 or more miles (10+ km)
Ceiling: at least 12,000 feet AGL
Clouds: few clouds at 2500 feet AGL
Weather: no significant weather observed at this time

METAR text: MNMG 232200Z 12012KT 9999 FEW025 31/18 Q1008 A2979 NOSIG
Conditions at: MNMG (MANAGUA/AUGUSTO , NI) observed 2200 UTC 23 January 2020
Temperature: 31.0°C (88°F)
Dewpoint: 18.0°C (64°F) [RH = 46%]
Pressure (altimeter): 29.76 inches Hg (1008.0 mb)
Winds: from the ESE (120 degrees) at 14 MPH (12 knots; 6.2 m/s)
Visibility: 6 or more miles (10+ km)
Ceiling: at least 12,000 feet AGL
Clouds: few clouds at 2500 feet AGL
Weather: no significant weather observed at this time

METAR text: MNMG 232100Z 11010KT 9999 FEW025 32/18 Q1009 A2980 NOSIG
Conditions at: MNMG (MANAGUA/AUGUSTO , NI) observed 2100 UTC 23 January 2020
Temperature: 32.0°C (90°F)
Dewpoint: 18.0°C (64°F) [RH = 43%]
Pressure (altimeter): 29.79 inches Hg (1009.0 mb)
Winds: from the ESE (110 degrees) at 12 MPH (10 knots; 5.1 m/s)
Visibility: 6 or more miles (10+ km)
Ceiling: at least 12,000 feet AGL
Clouds: few clouds at 2500 feet AGL
Weather: no significant weather observed at this time

METAR text: MNMG 232000Z 10010KT 9999 FEW025 32/18 Q1009 A2982 NOSIG
Conditions at: MNMG (MANAGUA/AUGUSTO , NI) observed 2000 UTC 23 January 2020
Temperature: 32.0°C (90°F)
Dewpoint: 18.0°C (64°F) [RH = 43%]
Pressure (altimeter): 29.79 inches Hg (1009.0 mb)
Winds: from the E (100 degrees) at 12 MPH (10 knots; 5.1 m/s)
Visibility: 6 or more miles (10+ km)
Ceiling: at least 12,000 feet AGL
Clouds: few clouds at 2500 feet AGL
Weather: no significant weather observed at this time

METAR text: MNMG 231900Z 13006KT 9999 FEW025 31/18 Q1010 A2985 NOSIG
Conditions at: MNMG (MANAGUA/AUGUSTO , NI) observed 1900 UTC 23 January 2020
Temperature: 31.0°C (88°F)
Dewpoint: 18.0°C (64°F) [RH = 46%]
Pressure (altimeter): 29.82 inches Hg (1010.0 mb)
Winds: from the SE (130 degrees) at 7 MPH (6 knots; 3.1 m/s)
Visibility: 6 or more miles (10+ km)
Ceiling: at least 12,000 feet AGL
Clouds: few clouds at 2500 feet AGL
Weather: no significant weather observed at this time

METAR text: MNMG 231800Z 10010KT 9999 FEW024 31/19 Q1012 A2989 NOSIG
Conditions at: MNMG (MANAGUA/AUGUSTO , NI) observed 1800 UTC 23 January 2020
Temperature: 31.0°C (88°F)
Dewpoint: 19.0°C (66°F) [RH = 49%]
Pressure (altimeter): 29.88 inches Hg (1012.0 mb)
Winds: from the E (100 degrees) at 12 MPH (10 knots; 5.1 m/s)
Visibility: 6 or more miles (10+ km)
Ceiling: at least 12,000 feet AGL
Clouds: few clouds at 2400 feet AGL
Weather: no significant weather observed at this time

METAR text: MNMG 231700Z 13008KT 9999 FEW024 30/24 Q1013 A2991 NOSIG
Conditions at: MNMG (MANAGUA/AUGUSTO , NI) observed 1700 UTC 23 January 2020
Temperature: 30.0°C (86°F)
Dewpoint: 24.0°C (75°F) [RH = 70%]
Pressure (altimeter): 29.91 inches Hg (1013.0 mb)
Winds: from the SE (130 degrees) at 9 MPH (8 knots; 4.1 m/s)
Visibility: 6 or more miles (10+ km)
Ceiling: at least 12,000 feet AGL
Clouds: few clouds at 2400 feet AGL
Weather: no significant weather observed at this time

METAR text: MNMG 231600Z 08006KT 9999 FEW022 28/20 Q1013 A2994 NOSIG
Conditions at: MNMG (MANAGUA/AUGUSTO , NI) observed 1600 UTC 23 January 2020
Temperature: 28.0°C (82°F)
Dewpoint: 20.0°C (68°F) [RH = 62%]
Pressure (altimeter): 29.91 inches Hg (1013.0 mb)
Winds: from the E (80 degrees) at 7 MPH (6 knots; 3.1 m/s)
Visibility: 6 or more miles (10+ km)
Ceiling: at least 12,000 feet AGL
Clouds: few clouds at 2200 feet AGL
Weather: no significant weather observed at this time

METAR text: MNMG 231500Z 11006KT 9999 FEW022 27/20 Q1014 A2995 NOSIG
Conditions at: MNMG (MANAGUA/AUGUSTO , NI) observed 1500 UTC 23 January 2020
Temperature: 27.0°C (81°F)
Dewpoint: 20.0°C (68°F) [RH = 66%]
Pressure (altimeter): 29.94 inches Hg (1014.0 mb)
Winds: from the ESE (110 degrees) at 7 MPH (6 knots; 3.1 m/s)
Visibility: 6 or more miles (10+ km)
Ceiling: at least 12,000 feet AGL
Clouds: few clouds at 2200 feet AGL
Weather: no significant weather observed at this time

Forecast for: MNMG (MANAGUA/AUGUSTO , NI)
Text: MNMG 250200Z 2506/2606 14006KT CAVOK
Forecast period: 0600 to 1600 UTC 25 January 2020
Forecast type: FROM: standard forecast or significant change
Winds: from the SE (140 degrees) at 7 MPH (6 knots; 3.1 m/s)
Visibility: 6 or more miles 10+ km)
Ceiling: unknown
Clouds: missing
Weather: NSW  (no significant weather)
Text: FM251600 16008KT
Forecast period: 1600 to 2000 UTC 25 January 2020
Forecast type: FROM: standard forecast or significant change
Winds: from the SSE (160 degrees) at 9 MPH (8 knots; 4.1 m/s)
Visibility: missing
Ceiling: unknown
Clouds: missing
Weather: no significant weather forecast for this period
Text: BECMG 2520/2523 13010KT 9999 FEW020
Forecast period: 2000 UTC 25 January 2020 to 0600 UTC 26 January 2020
Forecast type: BECOMING: Conditions expected to become as follows by 2300 UTC 25 January 2020
Winds: from the SE (130 degrees) at 12 MPH (10 knots; 5.1 m/s)
Visibility: 6 or more miles 10+ km)
Ceiling: at least 12,000 feet AGL
Clouds: few clouds at 2000 feet AGL
Weather: no significant weather forecast for this period